Time;durP1;ratioP1;P1;durP2;ratioP2;P2;SDS_P1;SDS_P2;PMS_P1;PMS_P2;Temp;Humidity;BMP_temperature;BMP_pressure;BME280_temperature;BME280_humidity;BME280_pressure;Samples;Min_cycle;Max_cycle;Signal;HPM_P1;HPM_P2
2023/11/20 00:02:06;;;;;;;;;;;19.70;66.70;;;;;;4989310;28;1193;-70
2023/11/20 00:04:32;;;;;;;;;;;19.60;66.60;;;;;;5005656;28;1294;-70
2023/11/20 00:06:57;;;;;;;;;;;19.60;66.70;;;;;;5004821;28;1082;-72
2023/11/20 00:09:23;;;;;;;;;;;19.70;66.70;;;;;;5004926;28;1368;-71
2023/11/20 00:11:48;;;;;;;;;;;19.60;66.70;;;;;;5008383;28;1365;-71
2023/11/20 00:14:14;;;;;;;;;;;19.60;66.70;;;;;;5003129;28;1384;-69
2023/11/20 00:16:39;;;;;;;;;;;19.60;66.70;;;;;;4999875;28;1979;-70
2023/11/20 00:19:06;;;;;;;;;;;19.60;66.70;;;;;;5007308;28;1454;-70
2023/11/20 00:21:33;;;;;;;;;;;19.60;66.80;;;;;;5004167;28;1463;-70
2023/11/20 00:23:58;;;;;;;;;;;19.60;66.80;;;;;;5003617;28;1330;-69
2023/11/20 00:26:24;;;;;;;;;;;19.60;66.80;;;;;;5005519;28;1682;-69
2023/11/20 00:28:53;;;;;;;;;;;19.60;66.80;;;;;;5002132;28;1360;-72
2023/11/20 00:31:18;;;;;;;;;;;19.60;66.90;;;;;;5004170;28;1372;-72
2023/11/20 00:33:44;;;;;;;;;;;19.60;66.90;;;;;;5001861;28;1391;-72
2023/11/20 00:36:09;;;;;;;;;;;19.60;66.90;;;;;;5005924;28;1902;-72
2023/11/20 00:38:35;;;;;;;;;;;19.60;66.90;;;;;;5004329;28;1431;-72
2023/11/20 00:41:01;;;;;;;;;;;19.60;66.90;;;;;;4993781;28;1249;-72
2023/11/20 00:43:26;;;;;;;;;;;19.60;66.90;;;;;;5004863;28;1467;-71
2023/11/20 00:45:52;;;;;;;;;;;19.60;67.00;;;;;;5002662;28;1469;-71
2023/11/20 00:48:17;;;;;;;;;;;19.60;67.00;;;;;;5004441;28;1362;-70
2023/11/20 00:50:43;;;;;;;;;;;19.50;66.90;;;;;;4986218;28;1809;-70
2023/11/20 00:53:08;;;;;;;;;;;19.50;67.00;;;;;;5021051;28;1276;-70
2023/11/20 00:55:34;;;;;;;;;;;19.50;67.00;;;;;;5003692;28;1528;-70
2023/11/20 00:57:59;;;;;;;;;;;19.50;67.00;;;;;;5002551;28;2051;-70
2023/11/20 01:00:24;;;;;;;;;;;19.50;67.00;;;;;;5004807;28;1479;-70
2023/11/20 01:02:50;;;;;;;;;;;19.50;67.00;;;;;;5001493;28;1541;-70
2023/11/20 01:05:16;;;;;;;;;;;19.50;67.10;;;;;;4990086;28;1598;-69
2023/11/20 01:07:41;;;;;;;;;;;19.50;67.10;;;;;;5005121;28;1375;-71
2023/11/20 01:10:07;;;;;;;;;;;19.50;67.10;;;;;;5004122;28;1411;-69
2023/11/20 01:12:33;;;;;;;;;;;19.50;67.10;;;;;;5001971;28;1398;-69
2023/11/20 01:14:59;;;;;;;;;;;19.50;67.10;;;;;;4991742;28;1476;-69
2023/11/20 01:17:25;;;;;;;;;;;19.50;67.20;;;;;;5005630;28;1906;-72
2023/11/20 01:19:50;;;;;;;;;;;19.50;67.10;;;;;;5005454;28;1134;-73
2023/11/20 01:22:16;;;;;;;;;;;19.50;67.10;;;;;;5004708;28;1455;-73
2023/11/20 01:24:41;;;;;;;;;;;19.50;67.20;;;;;;5003618;28;1614;-73
2023/11/20 01:27:06;;;;;;;;;;;19.50;67.20;;;;;;5001140;28;1356;-73
2023/11/20 01:29:32;;;;;;;;;;;19.50;67.20;;;;;;4991386;28;1552;-72
2023/11/20 01:31:58;;;;;;;;;;;19.50;67.20;;;;;;5000077;28;1406;-73
2023/11/20 01:34:23;;;;;;;;;;;19.50;67.20;;;;;;4992165;28;1460;-72
2023/11/20 01:36:49;;;;;;;;;;;19.50;67.30;;;;;;5002927;28;1956;-71
2023/11/20 01:39:14;;;;;;;;;;;19.50;67.20;;;;;;5002337;28;1199;-71
2023/11/20 01:41:41;;;;;;;;;;;19.50;67.30;;;;;;5002519;28;1997;-71
2023/11/20 01:44:06;;;;;;;;;;;19.50;67.30;;;;;;5004448;28;1437;-71
2023/11/20 01:46:32;;;;;;;;;;;19.50;67.30;;;;;;4991598;28;1383;-71
2023/11/20 01:48:59;;;;;;;;;;;19.50;67.30;;;;;;4991774;28;1407;-71
2023/11/20 01:51:27;;;;;;;;;;;19.50;67.30;;;;;;5003526;28;1481;-71
2023/11/20 01:53:53;;;;;;;;;;;19.50;67.30;;;;;;4990122;28;1543;-73
2023/11/20 01:56:19;;;;;;;;;;;19.50;67.40;;;;;;4986476;28;1969;-73
2023/11/20 01:58:44;;;;;;;;;;;19.50;67.40;;;;;;5000738;28;1408;-72
2023/11/20 02:01:10;;;;;;;;;;;19.50;67.40;;;;;;4984723;28;1470;-72
2023/11/20 02:03:35;;;;;;;;;;;19.40;67.30;;;;;;5002889;28;1275;-72
2023/11/20 02:06:01;;;;;;;;;;;19.50;67.40;;;;;;4988552;28;1408;-72
2023/11/20 02:08:27;;;;;;;;;;;19.50;67.40;;;;;;5002043;28;1473;-72
2023/11/20 02:10:52;;;;;;;;;;;19.50;67.40;;;;;;5003283;28;1452;-72
2023/11/20 02:13:18;;;;;;;;;;;19.50;67.40;;;;;;5002956;28;1463;-71
2023/11/20 02:15:43;;;;;;;;;;;19.40;67.40;;;;;;5002427;28;1906;-70
2023/11/20 02:18:29;;;;;;;;;;;19.40;67.40;;;;;;4992359;28;1445;-70
2023/11/20 02:20:54;;;;;;;;;;;19.40;67.40;;;;;;5004608;28;1221;-69
2023/11/20 02:23:20;;;;;;;;;;;19.40;67.40;;;;;;5003503;28;1423;-69
2023/11/20 02:25:46;;;;;;;;;;;19.40;67.50;;;;;;5001344;28;1421;-69
2023/11/20 02:28:17;;;;;;;;;;;19.40;67.40;;;;;;4984867;28;1781;-69
2023/11/20 02:30:42;;;;;;;;;;;19.40;67.50;;;;;;4985306;28;1507;-69
2023/11/20 02:33:08;;;;;;;;;;;19.40;67.50;;;;;;5003235;28;1317;-70
2023/11/20 02:35:33;;;;;;;;;;;19.40;67.50;;;;;;5002702;28;1630;-70
2023/11/20 02:37:59;;;;;;;;;;;19.40;67.50;;;;;;5002922;28;1959;-70
2023/11/20 02:40:24;;;;;;;;;;;19.40;67.60;;;;;;5002055;28;1072;-70
2023/11/20 02:42:50;;;;;;;;;;;19.40;67.50;;;;;;5003842;28;1383;-70
2023/11/20 02:45:15;;;;;;;;;;;19.40;67.60;;;;;;5001045;28;1577;-69
2023/11/20 02:47:41;;;;;;;;;;;19.40;67.50;;;;;;5000881;28;1382;-69
2023/11/20 02:50:06;;;;;;;;;;;19.40;67.60;;;;;;4981325;28;1329;-69
2023/11/20 02:52:32;;;;;;;;;;;19.40;67.60;;;;;;5002769;28;1250;-69
2023/11/20 02:54:59;;;;;;;;;;;19.40;67.60;;;;;;5003686;28;1488;-69
2023/11/20 02:57:24;;;;;;;;;;;19.40;67.60;;;;;;4985852;28;1910;-69
2023/11/20 02:59:50;;;;;;;;;;;19.40;67.60;;;;;;4998801;28;1780;-69
2023/11/20 03:02:15;;;;;;;;;;;19.40;67.60;;;;;;5002142;28;1551;-70
2023/11/20 03:04:43;;;;;;;;;;;19.40;67.60;;;;;;5000958;28;1790;-70
2023/11/20 03:07:08;;;;;;;;;;;19.40;67.60;;;;;;4988083;28;1517;-70
2023/11/20 03:09:33;;;;;;;;;;;19.40;67.60;;;;;;4985199;28;1530;-70
2023/11/20 03:12:02;;;;;;;;;;;19.40;67.60;;;;;;5003576;28;1524;-70
2023/11/20 03:14:28;;;;;;;;;;;19.40;67.60;;;;;;5002098;28;1464;-71
2023/11/20 03:16:53;;;;;;;;;;;19.30;67.60;;;;;;4999946;28;1914;-70
2023/11/20 03:19:19;;;;;;;;;;;19.40;67.70;;;;;;4999479;28;1445;-71
2023/11/20 03:21:44;;;;;;;;;;;19.40;67.70;;;;;;5002018;28;1678;-71
2023/11/20 03:24:10;;;;;;;;;;;19.40;67.70;;;;;;5001193;28;1348;-71
2023/11/20 03:26:35;;;;;;;;;;;19.30;67.60;;;;;;5000916;28;1418;-72
2023/11/20 03:29:01;;;;;;;;;;;19.40;67.70;;;;;;4999484;28;1435;-71
2023/11/20 03:31:33;;;;;;;;;;;19.30;67.70;;;;;;4988712;28;1435;-71
2023/11/20 03:33:58;;;;;;;;;;;19.30;67.60;;;;;;4983817;28;1415;-70
2023/11/20 03:36:29;;;;;;;;;;;19.30;67.70;;;;;;4981757;28;1910;-70
2023/11/20 03:38:55;;;;;;;;;;;19.40;67.70;;;;;;4982744;28;1395;-70
2023/11/20 03:41:20;;;;;;;;;;;19.30;67.70;;;;;;4999547;28;1369;-70
2023/11/20 03:43:46;;;;;;;;;;;19.30;67.70;;;;;;4998966;28;2320;-70
2023/11/20 03:46:11;;;;;;;;;;;19.30;67.70;;;;;;4999922;28;1682;-71
2023/11/20 03:48:37;;;;;;;;;;;19.30;67.70;;;;;;5001064;28;1435;-71
2023/11/20 03:51:04;;;;;;;;;;;19.30;67.70;;;;;;5004217;28;1759;-71
2023/11/20 03:53:30;;;;;;;;;;;19.30;67.70;;;;;;4986014;28;1301;-70
2023/11/20 03:55:56;;;;;;;;;;;19.30;67.80;;;;;;5004217;28;1898;-71
2023/11/20 03:58:21;;;;;;;;;;;19.30;67.70;;;;;;5002247;28;1268;-70
2023/11/20 04:00:47;;;;;;;;;;;19.30;67.80;;;;;;5005995;28;916;-70
2023/11/20 04:03:12;;;;;;;;;;;19.30;67.70;;;;;;5003969;28;1449;-71
2023/11/20 04:05:38;;;;;;;;;;;19.30;67.80;;;;;;5004988;28;1419;-70
2023/11/20 04:08:05;;;;;;;;;;;19.30;67.70;;;;;;5004757;28;1457;-70
2023/11/20 04:10:30;;;;;;;;;;;19.30;67.80;;;;;;5003703;28;1603;-70
2023/11/20 04:12:58;;;;;;;;;;;19.30;67.80;;;;;;5004144;28;1438;-70
2023/11/20 04:15:23;;;;;;;;;;;19.30;67.80;;;;;;5004728;28;1451;-71
2023/11/20 04:17:49;;;;;;;;;;;19.30;67.80;;;;;;5005266;28;1910;-70
2023/11/20 04:20:14;;;;;;;;;;;19.30;67.80;;;;;;5007968;28;1296;-70
2023/11/20 04:22:40;;;;;;;;;;;19.30;67.80;;;;;;5007049;28;1520;-71
2023/11/20 04:25:08;;;;;;;;;;;19.30;67.80;;;;;;5005499;28;1375;-70
2023/11/20 04:27:35;;;;;;;;;;;19.30;67.90;;;;;;5004199;28;1469;-70
2023/11/20 04:30:01;;;;;;;;;;;19.30;67.90;;;;;;5003472;28;1232;-71
2023/11/20 04:32:26;;;;;;;;;;;19.30;67.90;;;;;;5004672;28;1352;-71
2023/11/20 04:34:52;;;;;;;;;;;19.30;67.80;;;;;;4992242;28;1371;-71
2023/11/20 04:37:17;;;;;;;;;;;19.30;67.90;;;;;;5002177;28;1942;-71
2023/11/20 04:39:43;;;;;;;;;;;19.30;67.80;;;;;;5008027;28;1305;-72
2023/11/20 04:42:08;;;;;;;;;;;19.30;67.90;;;;;;4988428;28;1279;-71
2023/11/20 04:44:34;;;;;;;;;;;19.30;67.90;;;;;;5001191;28;1400;-72
2023/11/20 04:46:59;;;;;;;;;;;19.30;67.90;;;;;;5002956;28;1478;-71
2023/11/20 04:49:25;;;;;;;;;;;19.30;67.90;;;;;;5003415;28;1462;-71
2023/11/20 04:51:51;;;;;;;;;;;19.30;67.90;;;;;;4989726;28;1498;-71
2023/11/20 04:54:17;;;;;;;;;;;19.30;67.90;;;;;;4991097;28;1465;-71
2023/11/20 04:56:43;;;;;;;;;;;19.30;68.00;;;;;;5001745;28;1906;-71
2023/11/20 04:59:09;;;;;;;;;;;19.30;67.90;;;;;;4973700;28;1201;-71
2023/11/20 05:01:35;;;;;;;;;;;19.30;67.90;;;;;;5002567;28;1478;-71
2023/11/20 05:04:00;;;;;;;;;;;19.30;67.90;;;;;;5000336;28;1490;-72
2023/11/20 05:06:26;;;;;;;;;;;19.30;67.90;;;;;;4983620;28;1451;-71
2023/11/20 05:08:51;;;;;;;;;;;19.30;68.00;;;;;;5001652;28;1453;-71
2023/11/20 05:11:16;;;;;;;;;;;19.30;67.90;;;;;;5002278;28;1471;-71
2023/11/20 05:13:42;;;;;;;;;;;19.30;67.90;;;;;;5006694;28;1607;-71
2023/11/20 05:16:08;;;;;;;;;;;19.30;67.80;;;;;;5001010;28;1910;-71
2023/11/20 05:18:34;;;;;;;;;;;19.40;67.80;;;;;;5004993;28;1455;-71
2023/11/20 05:20:59;;;;;;;;;;;19.30;67.70;;;;;;5004766;28;1449;-72
2023/11/20 05:23:25;;;;;;;;;;;19.40;67.70;;;;;;5002371;28;1557;-71
2023/11/20 05:25:50;;;;;;;;;;;19.40;67.60;;;;;;5002905;28;1510;-71
2023/11/20 05:28:16;;;;;;;;;;;19.40;67.50;;;;;;5002495;28;1417;-71
2023/11/20 05:30:42;;;;;;;;;;;19.50;67.40;;;;;;5004256;28;1510;-71
2023/11/20 05:33:10;;;;;;;;;;;19.50;67.30;;;;;;5000790;28;1343;-70
2023/11/20 05:35:36;;;;;;;;;;;19.50;67.20;;;;;;5003816;28;1428;-72
2023/11/20 05:38:02;;;;;;;;;;;19.50;67.10;;;;;;5002230;28;1922;-73
2023/11/20 05:40:27;;;;;;;;;;;19.50;67.00;;;;;;5004050;28;1244;-72
2023/11/20 05:42:53;;;;;;;;;;;19.50;67.00;;;;;;4985760;28;1610;-69
2023/11/20 05:45:18;;;;;;;;;;;19.60;66.90;;;;;;5001900;28;1240;-72
2023/11/20 05:47:44;;;;;;;;;;;19.60;66.90;;;;;;5001036;28;1559;-72
2023/11/20 05:50:09;;;;;;;;;;;19.60;66.80;;;;;;5001604;28;1447;-71
2023/11/20 05:52:35;;;;;;;;;;;19.60;66.80;;;;;;5000848;28;1454;-71
2023/11/20 05:55:02;;;;;;;;;;;19.60;66.70;;;;;;5003568;28;1335;-72
2023/11/20 05:57:28;;;;;;;;;;;19.60;66.70;;;;;;5000833;28;1906;-71
2023/11/20 05:59:53;;;;;;;;;;;19.60;66.60;;;;;;5006627;28;1338;-70
2023/11/20 06:02:18;;;;;;;;;;;19.70;66.60;;;;;;5003082;28;1001;-72
2023/11/20 06:04:46;;;;;;;;;;;19.70;66.60;;;;;;4999937;28;1443;-71
2023/11/20 06:07:14;;;;;;;;;;;19.70;66.60;;;;;;5000463;28;1076;-72
2023/11/20 06:09:40;;;;;;;;;;;19.70;66.50;;;;;;5001558;28;1054;-71
2023/11/20 06:12:06;;;;;;;;;;;19.70;66.50;;;;;;5001733;28;1066;-71
2023/11/20 06:14:32;;;;;;;;;;;19.70;66.40;;;;;;5002131;28;1375;-71
2023/11/20 06:16:58;;;;;;;;;;;19.70;66.40;;;;;;5001013;28;1906;-71
2023/11/20 06:19:27;;;;;;;;;;;19.70;66.40;;;;;;5000593;28;1534;-71
2023/11/20 06:21:53;;;;;;;;;;;19.70;66.40;;;;;;5003168;28;1478;-71
2023/11/20 06:24:19;;;;;;;;;;;19.70;66.30;;;;;;5002443;28;1492;-71
2023/11/20 06:26:44;;;;;;;;;;;19.70;66.30;;;;;;4999570;28;1456;-71
2023/11/20 06:29:10;;;;;;;;;;;19.70;66.30;;;;;;5002288;28;1407;-72
2023/11/20 06:31:36;;;;;;;;;;;19.70;66.30;;;;;;4984948;28;1386;-71
2023/11/20 06:34:01;;;;;;;;;;;19.70;66.30;;;;;;4991500;28;1421;-72
2023/11/20 06:36:27;;;;;;;;;;;19.70;66.20;;;;;;4982368;28;1907;-71
2023/11/20 06:38:53;;;;;;;;;;;19.70;66.30;;;;;;4990090;28;1422;-70
2023/11/20 06:41:18;;;;;;;;;;;19.70;66.30;;;;;;4989870;28;1732;-70
2023/11/20 06:43:44;;;;;;;;;;;19.70;66.20;;;;;;4990990;28;1557;-72
2023/11/20 06:46:16;;;;;;;;;;;19.80;66.30;;;;;;4987685;28;1509;-70
2023/11/20 06:48:42;;;;;;;;;;;19.80;66.30;;;;;;4990429;28;1980;-70
2023/11/20 06:51:11;;;;;;;;;;;19.80;66.30;;;;;;5002044;28;1601;-70
2023/11/20 06:53:36;;;;;;;;;;;19.80;66.30;;;;;;5003723;28;1380;-70
2023/11/20 06:56:03;;;;;;;;;;;19.80;66.20;;;;;;5002575;28;1974;-70
2023/11/20 06:58:28;;;;;;;;;;;19.80;66.30;;;;;;5003158;28;1450;-70
2023/11/20 07:00:54;;;;;;;;;;;19.80;66.30;;;;;;5003670;28;1386;-69
2023/11/20 07:03:20;;;;;;;;;;;19.80;66.20;;;;;;5001626;28;1360;-70
2023/11/20 07:05:48;;;;;;;;;;;19.80;66.20;;;;;;5003438;28;1343;-70
2023/11/20 07:08:15;;;;;;;;;;;19.80;66.30;;;;;;5001285;28;1505;-70
2023/11/20 07:10:40;;;;;;;;;;;19.80;66.30;;;;;;4988831;28;1929;-74
2023/11/20 07:13:06;;;;;;;;;;;19.80;66.20;;;;;;4986333;28;1985;-71
2023/11/20 07:15:32;;;;;;;;;;;19.80;66.20;;;;;;4999985;28;1798;-71
2023/11/20 07:17:58;;;;;;;;;;;19.80;66.20;;;;;;4998580;28;1980;-72
2023/11/20 07:20:26;;;;;;;;;;;19.70;66.10;;;;;;5001239;28;1321;-71
2023/11/20 07:22:52;;;;;;;;;;;19.80;66.20;;;;;;5003814;28;1850;-73
2023/11/20 07:25:17;;;;;;;;;;;19.80;66.20;;;;;;5002897;28;1266;-70
2023/11/20 07:27:43;;;;;;;;;;;19.80;66.20;;;;;;4983532;28;1430;-72
2023/11/20 07:30:09;;;;;;;;;;;19.80;66.20;;;;;;5004162;28;1550;-73
2023/11/20 07:32:35;;;;;;;;;;;19.80;66.20;;;;;;4984307;28;1329;-72
2023/11/20 07:35:01;;;;;;;;;;;19.80;66.20;;;;;;5003112;28;1542;-73
2023/11/20 07:37:26;;;;;;;;;;;19.80;65.60;;;;;;4987646;28;1902;-73
2023/11/20 07:39:52;;;;;;;;;;;19.80;66.20;;;;;;5005161;28;1219;-73
2023/11/20 07:42:18;;;;;;;;;;;19.80;66.20;;;;;;4993377;28;1267;-73
2023/11/20 07:44:44;;;;;;;;;;;19.80;66.20;;;;;;5007139;28;1363;-72
2023/11/20 07:47:10;;;;;;;;;;;19.80;66.20;;;;;;5010167;28;889;-72
2023/11/20 07:49:35;;;;;;;;;;;19.80;66.20;;;;;;5010281;28;816;-73
2023/11/20 07:52:01;;;;;;;;;;;19.80;66.20;;;;;;5008358;28;892;-75
2023/11/20 07:54:26;;;;;;;;;;;19.80;66.10;;;;;;5011891;28;1360;-78
2023/11/20 07:56:52;;;;;;;;;;;19.80;66.20;;;;;;4998346;28;1899;-76
2023/11/20 07:59:17;;;;;;;;;;;19.80;66.10;;;;;;5007116;28;1320;-71
2023/11/20 08:01:43;;;;;;;;;;;19.80;66.10;;;;;;5008524;28;1412;-71
2023/11/20 08:04:11;;;;;;;;;;;19.80;66.10;;;;;;5002518;28;1372;-70
2023/11/20 08:06:36;;;;;;;;;;;19.80;66.10;;;;;;5004005;28;1616;-70
2023/11/20 08:09:03;;;;;;;;;;;19.80;66.10;;;;;;5006873;28;1555;-72
2023/11/20 08:11:28;;;;;;;;;;;19.80;66.90;;;;;;5007420;28;1372;-70
2023/11/20 08:13:54;;;;;;;;;;;19.80;66.90;;;;;;5002654;28;1444;-71
2023/11/20 08:16:19;;;;;;;;;;;19.80;66.10;;;;;;5001965;28;1906;-70
2023/11/20 08:18:45;;;;;;;;;;;19.80;66.10;;;;;;5003339;28;1553;-72
2023/11/20 08:21:10;;;;;;;;;;;19.80;66.20;;;;;;5002311;28;1240;-70
2023/11/20 08:23:36;;;;;;;;;;;19.80;66.10;;;;;;5006104;28;1434;-71
2023/11/20 08:26:02;;;;;;;;;;;19.80;66.10;;;;;;4992703;28;1406;-71
2023/11/20 08:28:27;;;;;;;;;;;19.80;66.10;;;;;;4992529;28;1401;-71
2023/11/20 08:30:53;;;;;;;;;;;19.80;66.10;;;;;;5003408;28;1428;-72
2023/11/20 08:33:19;;;;;;;;;;;19.80;66.10;;;;;;5002948;28;1492;-72
2023/11/20 08:35:44;;;;;;;;;;;19.80;66.10;;;;;;5002651;28;1858;-72
2023/11/20 08:38:10;;;;;;;;;;;19.80;66.10;;;;;;5004385;28;1973;-72
2023/11/20 08:40:36;;;;;;;;;;;19.80;66.10;;;;;;4992756;28;1261;-71
2023/11/20 08:43:01;;;;;;;;;;;19.80;66.10;;;;;;4984819;28;1462;-72
2023/11/20 08:45:27;;;;;;;;;;;19.80;66.20;;;;;;5002717;28;1460;-71
2023/11/20 08:47:52;;;;;;;;;;;19.80;66.20;;;;;;5004282;28;1134;-73
2023/11/20 08:50:18;;;;;;;;;;;19.80;66.20;;;;;;5005689;28;1383;-73
2023/11/20 08:52:43;;;;;;;;;;;19.80;66.20;;;;;;5003856;28;1505;-72
2023/11/20 08:55:09;;;;;;;;;;;19.70;66.20;;;;;;5004106;28;1363;-72
2023/11/20 08:57:35;;;;;;;;;;;19.70;66.30;;;;;;5004897;28;2003;-71
2023/11/20 09:00:02;;;;;;;;;;;19.70;66.30;;;;;;4991952;28;1063;-72
2023/11/20 09:02:27;;;;;;;;;;;19.70;66.30;;;;;;5005290;28;1028;-72
2023/11/20 09:04:53;;;;;;;;;;;19.70;66.40;;;;;;5003396;28;1273;-71
2023/11/20 09:07:19;;;;;;;;;;;19.70;66.40;;;;;;5003196;28;1721;-72
2023/11/20 09:09:45;;;;;;;;;;;19.70;66.40;;;;;;4985628;28;1321;-72
2023/11/20 09:12:10;;;;;;;;;;;19.70;66.40;;;;;;5005485;28;1429;-73
2023/11/20 09:14:36;;;;;;;;;;;19.70;66.40;;;;;;4991973;28;1418;-72
2023/11/20 09:17:01;;;;;;;;;;;19.70;66.40;;;;;;5003805;28;1906;-73
2023/11/20 09:19:27;;;;;;;;;;;19.70;66.40;;;;;;5003782;28;1367;-71
2023/11/20 09:21:52;;;;;;;;;;;19.70;66.40;;;;;;5004066;28;1437;-72
2023/11/20 09:24:18;;;;;;;;;;;19.70;66.40;;;;;;5001525;28;1449;-70
2023/11/20 09:26:44;;;;;;;;;;;19.70;66.40;;;;;;5004362;28;1068;-70
2023/11/20 09:29:10;;;;;;;;;;;19.70;66.40;;;;;;4983318;28;1366;-70
2023/11/20 09:31:35;;;;;;;;;;;19.70;66.40;;;;;;5002808;28;1426;-70
2023/11/20 09:34:01;;;;;;;;;;;19.70;66.40;;;;;;4988331;28;1321;-70
2023/11/20 09:36:26;;;;;;;;;;;19.70;66.40;;;;;;5003535;28;1938;-71
2023/11/20 09:38:52;;;;;;;;;;;19.70;66.30;;;;;;5002925;28;1523;-69
2023/11/20 09:41:17;;;;;;;;;;;19.70;66.30;;;;;;4979815;28;1510;-71
2023/11/20 09:43:44;;;;;;;;;;;19.70;66.30;;;;;;5001810;28;1663;-70
2023/11/20 09:46:10;;;;;;;;;;;19.70;66.30;;;;;;5002349;28;1481;-72
2023/11/20 09:48:36;;;;;;;;;;;19.70;66.30;;;;;;5002452;28;1675;-70
2023/11/20 09:51:02;;;;;;;;;;;19.70;66.30;;;;;;4991326;28;1587;-70
2023/11/20 09:53:31;;;;;;;;;;;19.80;66.40;;;;;;4986785;28;1462;-71
2023/11/20 09:55:57;;;;;;;;;;;19.70;66.30;;;;;;5002568;28;1976;-71
2023/11/20 09:58:23;;;;;;;;;;;19.80;66.30;;;;;;5001900;28;1360;-71
2023/11/20 10:00:49;;;;;;;;;;;19.80;66.30;;;;;;5001782;28;1437;-70
2023/11/20 10:03:15;;;;;;;;;;;19.80;66.30;;;;;;4983561;28;1371;-71
2023/11/20 10:05:41;;;;;;;;;;;19.80;66.30;;;;;;4991137;28;1672;-70
2023/11/20 10:08:07;;;;;;;;;;;19.70;66.20;;;;;;4991259;28;1512;-69
2023/11/20 10:10:34;;;;;;;;;;;19.80;66.30;;;;;;4988664;28;1480;-70
2023/11/20 10:13:00;;;;;;;;;;;19.80;66.30;;;;;;4998898;28;1419;-70
2023/11/20 10:15:26;;;;;;;;;;;19.80;66.30;;;;;;5002146;28;1406;-70
2023/11/20 10:17:51;;;;;;;;;;;19.80;66.30;;;;;;5003064;28;1976;-70
2023/11/20 10:20:17;;;;;;;;;;;19.80;66.40;;;;;;5004605;28;1782;-70
2023/11/20 10:22:44;;;;;;;;;;;19.80;66.30;;;;;;5000850;28;1978;-70
2023/11/20 10:25:10;;;;;;;;;;;19.80;66.30;;;;;;5001987;28;1280;-71
2023/11/20 10:27:36;;;;;;;;;;;19.70;66.20;;;;;;4986700;28;2016;-70
2023/11/20 10:30:03;;;;;;;;;;;19.80;66.30;;;;;;5003006;28;1842;-71
2023/11/20 10:32:29;;;;;;;;;;;19.80;66.40;;;;;;4992275;28;1434;-71
2023/11/20 10:35:14;;;;;;;;;;;19.70;66.20;;;;;;5000884;28;1359;-70
2023/11/20 10:37:58;;;;;;;;;;;19.70;66.30;;;;;;4982679;28;1902;-70
2023/11/20 10:40:26;;;;;;;;;;;19.70;66.20;;;;;;4964090;28;1218;-70
2023/11/20 10:42:55;;;;;;;;;;;19.80;66.30;;;;;;4999543;28;1743;-70
2023/11/20 10:45:20;;;;;;;;;;;19.80;66.30;;;;;;5003037;28;1390;-71
2023/11/20 10:47:48;;;;;;;;;;;19.70;66.20;;;;;;5001562;28;1412;-70
2023/11/20 10:50:14;;;;;;;;;;;19.80;66.30;;;;;;5002871;28;1472;-70
2023/11/20 10:52:40;;;;;;;;;;;19.80;66.30;;;;;;4999092;28;1509;-70
2023/11/20 10:55:05;;;;;;;;;;;19.80;66.30;;;;;;5002445;28;1482;-71
2023/11/20 10:57:32;;;;;;;;;;;19.80;66.30;;;;;;4981548;28;1968;-70
2023/11/20 10:59:58;;;;;;;;;;;19.80;66.30;;;;;;4982423;28;1328;-70
2023/11/20 11:02:25;;;;;;;;;;;19.80;66.20;;;;;;5006771;28;1590;-70
2023/11/20 11:04:51;;;;;;;;;;;19.80;66.20;;;;;;4992345;28;1638;-70
2023/11/20 11:07:17;;;;;;;;;;;19.80;66.20;;;;;;5002261;28;1409;-69
2023/11/20 11:09:42;;;;;;;;;;;19.80;66.20;;;;;;5001475;28;1761;-70
2023/11/20 11:12:08;;;;;;;;;;;19.80;66.20;;;;;;5001724;28;1364;-70
2023/11/20 11:14:33;;;;;;;;;;;19.80;66.20;;;;;;5000232;28;1402;-70
2023/11/20 11:17:04;;;;;;;;;;;19.80;66.20;;;;;;5000678;28;1906;-70
2023/11/20 11:19:30;;;;;;;;;;;19.80;66.20;;;;;;5000199;28;1382;-70
2023/11/20 11:22:02;;;;;;;;;;;19.80;66.20;;;;;;4988542;28;1909;-72
2023/11/20 11:24:31;;;;;;;;;;;19.80;66.20;;;;;;4988941;28;1428;-71
2023/11/20 11:27:19;;;;;;;;;;;19.80;66.20;;;;;;4988872;28;1872;-71
2023/11/20 11:29:45;;;;;;;;;;;19.80;66.20;;;;;;5001879;28;1928;-70
2023/11/20 11:32:29;;;;;;;;;;;19.80;66.10;;;;;;4991995;28;1520;-70
2023/11/20 11:35:04;;;;;;;;;;;19.80;66.10;;;;;;5001292;28;1645;-70
2023/11/20 11:37:42;;;;;;;;;;;19.80;66.10;;;;;;4999466;28;1960;-70
2023/11/20 11:40:09;;;;;;;;;;;19.80;66.10;;;;;;4989757;28;1364;-71
2023/11/20 11:42:42;;;;;;;;;;;19.80;66.10;;;;;;4990174;28;1078;-70
2023/11/20 11:45:09;;;;;;;;;;;19.80;66.10;;;;;;4980946;28;1342;-70
2023/11/20 11:47:34;;;;;;;;;;;19.80;66.10;;;;;;4999013;28;1464;-70
2023/11/20 11:50:00;;;;;;;;;;;19.80;66.10;;;;;;5000164;28;1587;-71
2023/11/20 11:52:26;;;;;;;;;;;19.80;66.10;;;;;;4982922;28;1473;-72
2023/11/20 11:55:11;;;;;;;;;;;19.80;66.00;;;;;;5005402;28;1814;-71
2023/11/20 11:57:36;;;;;;;;;;;19.80;66.10;;;;;;4999886;28;1930;-71
2023/11/20 12:00:10;;;;;;;;;;;19.80;66.00;;;;;;4989733;28;1668;-71
2023/11/20 12:02:51;;;;;;;;;;;19.80;66.00;;;;;;5000525;28;1452;-71
2023/11/20 12:05:23;;;;;;;;;;;19.90;66.00;;;;;;5000322;28;1384;-71
2023/11/20 12:07:49;;;;;;;;;;;19.90;66.00;;;;;;4984437;28;1818;-71
2023/11/20 12:10:16;;;;;;;;;;;19.90;66.00;;;;;;5001622;28;1458;-70
2023/11/20 12:12:44;;;;;;;;;;;19.90;66.00;;;;;;5000674;28;1505;-70
2023/11/20 12:15:28;;;;;;;;;;;19.80;65.90;;;;;;5001265;28;1341;-70
2023/11/20 12:17:55;;;;;;;;;;;19.90;66.00;;;;;;4998275;28;2439;-70
2023/11/20 12:20:21;;;;;;;;;;;19.80;66.00;;;;;;5005984;28;1338;-70
2023/11/20 12:22:49;;;;;;;;;;;19.80;66.00;;;;;;5004026;28;1384;-70
2023/11/20 12:25:17;;;;;;;;;;;19.90;66.00;;;;;;5003291;28;1496;-70
2023/11/20 12:27:44;;;;;;;;;;;19.80;66.00;;;;;;5001337;28;1270;-69
2023/11/20 12:30:10;;;;;;;;;;;19.80;66.00;;;;;;4989861;28;1480;-70
2023/11/20 12:32:35;;;;;;;;;;;19.80;66.10;;;;;;4994713;28;1445;-70
2023/11/20 12:35:01;;;;;;;;;;;19.80;66.10;;;;;;5004722;28;1469;-71
2023/11/20 12:37:29;;;;;;;;;;;19.80;66.10;;;;;;5005628;28;1959;-71
2023/11/20 12:39:54;;;;;;;;;;;19.80;66.10;;;;;;5005049;28;1807;-71
2023/11/20 12:42:19;;;;;;;;;;;19.80;66.10;;;;;;5002329;28;1428;-71
2023/11/20 12:44:45;;;;;;;;;;;19.80;66.20;;;;;;5002369;28;1363;-71
2023/11/20 12:47:10;;;;;;;;;;;19.80;66.20;;;;;;4992386;28;1491;-71
2023/11/20 12:49:36;;;;;;;;;;;19.80;66.20;;;;;;5005437;28;1254;-71
2023/11/20 12:52:02;;;;;;;;;;;19.80;66.20;;;;;;5002075;28;1332;-71
2023/11/20 12:54:27;;;;;;;;;;;19.80;66.30;;;;;;5005625;28;1438;-70
2023/11/20 12:56:55;;;;;;;;;;;19.80;66.30;;;;;;4992260;28;1968;-71
2023/11/20 12:59:21;;;;;;;;;;;19.80;66.30;;;;;;5002403;28;1205;-71
2023/11/20 13:01:47;;;;;;;;;;;19.80;66.30;;;;;;5005199;28;1475;-71
2023/11/20 13:04:12;;;;;;;;;;;19.80;66.30;;;;;;5003612;28;1413;-71
2023/11/20 13:06:39;;;;;;;;;;;19.70;66.30;;;;;;5004624;28;1446;-71
2023/11/20 13:09:07;;;;;;;;;;;19.70;66.30;;;;;;5000684;28;1445;-70
2023/11/20 13:11:36;;;;;;;;;;;19.70;66.40;;;;;;5005622;28;1348;-71
2023/11/20 13:14:02;;;;;;;;;;;19.70;66.40;;;;;;5004076;28;1364;-71
2023/11/20 13:16:28;;;;;;;;;;;19.70;66.50;;;;;;5001951;28;1942;-71
2023/11/20 13:18:56;;;;;;;;;;;19.70;66.50;;;;;;5000666;28;1477;-71
2023/11/20 13:21:22;;;;;;;;;;;19.70;66.50;;;;;;5003829;28;1192;-71
2023/11/20 13:23:56;;;;;;;;;;;19.70;66.50;;;;;;4989819;28;1437;-71
2023/11/20 13:26:22;;;;;;;;;;;19.70;66.50;;;;;;5004921;28;1365;-71
2023/11/20 13:28:47;;;;;;;;;;;19.70;66.50;;;;;;5001313;28;1293;-71
2023/11/20 13:31:13;;;;;;;;;;;19.70;66.50;;;;;;5004359;28;1307;-71
2023/11/20 13:33:42;;;;;;;;;;;19.70;66.50;;;;;;5002293;28;1424;-72
2023/11/20 13:36:08;;;;;;;;;;;19.70;66.50;;;;;;5000366;28;1968;-72
2023/11/20 13:38:34;;;;;;;;;;;19.70;66.50;;;;;;4997411;28;1544;-72
2023/11/20 13:41:00;;;;;;;;;;;19.70;66.50;;;;;;5000921;28;1966;-71
2023/11/20 13:43:28;;;;;;;;;;;19.70;66.50;;;;;;4985514;28;1351;-71
2023/11/20 13:46:01;;;;;;;;;;;19.70;66.40;;;;;;5001302;28;1450;-70
2023/11/20 13:48:26;;;;;;;;;;;19.70;66.40;;;;;;5003620;28;1360;-72
2023/11/20 13:50:52;;;;;;;;;;;19.70;66.40;;;;;;4982770;28;1369;-72
2023/11/20 13:53:19;;;;;;;;;;;19.70;66.40;;;;;;4983976;28;1789;-72
2023/11/20 13:55:45;;;;;;;;;;;19.80;66.40;;;;;;5003009;28;1530;-71
2023/11/20 13:58:14;;;;;;;;;;;19.80;66.40;;;;;;5002943;28;1955;-72
2023/11/20 14:00:40;;;;;;;;;;;19.80;66.40;;;;;;5002273;28;1478;-72
2023/11/20 14:03:05;;;;;;;;;;;19.80;66.40;;;;;;4984783;28;1509;-71
2023/11/20 14:05:30;;;;;;;;;;;19.80;66.30;;;;;;4990791;28;1325;-72
2023/11/20 14:07:56;;;;;;;;;;;19.80;66.30;;;;;;5003679;28;1589;-71
2023/11/20 14:10:22;;;;;;;;;;;19.80;66.30;;;;;;5000818;28;1625;-72
2023/11/20 14:12:49;;;;;;;;;;;19.80;66.30;;;;;;4990966;28;1523;-72
2023/11/20 14:15:14;;;;;;;;;;;19.80;66.30;;;;;;5000201;28;1514;-72
2023/11/20 14:17:40;;;;;;;;;;;19.80;66.30;;;;;;4981279;28;1910;-72
2023/11/20 14:20:07;;;;;;;;;;;19.80;66.30;;;;;;5002670;28;1395;-72
2023/11/20 14:22:35;;;;;;;;;;;19.80;66.30;;;;;;4999431;28;1654;-71
2023/11/20 14:25:03;;;;;;;;;;;19.80;66.50;;;;;;5001215;28;1414;-71
2023/11/20 14:27:28;;;;;;;;;;;19.80;66.20;;;;;;5001046;28;1444;-70